Marion, VA

3:11 AM EST on February 28, 2015 (GMT -0500)
Smyth Weather | Change Station
CLOSE
Current Station
Personal Weather Station
Location: Marion, VA
Elevation: 2157 ft
Nearby Weather Stations
Active Advisory: Special Statement

Elev 2157 ft 36.81 °N, 81.59 °W | Updated 18 seconds ago

Mostly Cloudy
Mostly Cloudy
13.8 °F
Feels Like 14 °F
N
1.2
Wind Variable Wind from East
Gusts 1.2 mph

Today
High -- | Low -- °F
--% Chance of Precip.
Yesterday
High -- | Low -- °F
Precip. -- in
6:58 AM 6:19 PM
Waxing Gibbous, 75% visible
Pressure 30.53 in
Visibility 10.0 miles
Clouds Overcast 11000 ft
Windchill 14 °F
Dew Point 11 °F
Humidity 88%
Rainfall 0.00 in
Snow Depth Not available.
UV 0 out of 12
Pollen 2.00 out of 12
Air Quality Not available.
Flu Activity Not available.
METAR KMKJ 280755Z AUTO 00000KT 10SM OVC110 M11/M14 A3053 RMK AO2 T11121140

More Conditions Fewer Conditions

Pressure 30.53 in
Visibility 10.0 miles
Clouds Overcast 11000 ft
Windchill 14 °F
Dew Point 11 °F
Humidity 88%
Rainfall 0.00 in
Snow Depth Not available.
UV 0 out of 12
Pollen 2.00 out of 12
Air Quality Not available.
Flu Activity Not available.
METAR KMKJ 280755Z AUTO 00000KT 10SM OVC110 M11/M14 A3053 RMK AO2 T11121140

More Conditions Fewer Conditions

10-Day Weather Forecast

Almanac

Astronomy

Feb. 28, 2015 Rise Set
Actual Time
Civil Twilight
Nautical Twilight
Astronomical Twilight
Moon
Length of Visible Light
Length of Day
Tomorrow will be .
, % of the Moon is Illuminated

Today's Extremes

State Highs State Lows

Community

WunderPhotos

Upload Photos

1,800,984 photos uploaded!

WunderBlogs® & News

Nearby

Air Quality

  Air Quality AQ Index Pollutant
Not available.

Snow Depth

Station Depth Elevation

Earthquake Activity

City Distance Mag. Time & Date
Minimum magnitude displayed is 2.5.

Coastal Water Temperatures

Place Temperature

Nearby Weather Stations

Special Statement
Statement as of 11:32 PM EST on February 27, 2015

... Isolated black ice formation possible overnight...

Limited amounts of snow melted Friday thanks to below freezing
temperatures and limited sunshine. However... where any surface
moisture formed... it may have re-froze... causing slippery spots
on roads... sidewalks and parking lots.



1132 PM EST Fri Feb 27 2015

... Isolated black ice formation possible overnight...

Limited amounts of snow melted Friday thanks to below freezing
temperatures and limited sunshine. However... where any surface
moisture formed... it may have re-froze... causing slippery spots
on roads... sidewalks and parking lots.